createdAt,value
2018-05-09T00:02:15.600Z,10.23
2018-05-09T00:04:42.704Z,10.33
2018-05-09T00:07:09.930Z,10.29
2018-05-09T00:09:37.020Z,10.35
2018-05-09T00:12:04.187Z,10.40
2018-05-09T00:14:31.161Z,10.41
2018-05-09T00:16:58.268Z,10.22
2018-05-09T00:19:25.341Z,10.14
2018-05-09T00:21:52.433Z,10.18
2018-05-09T00:24:19.548Z,10.13
2018-05-09T00:26:46.678Z,10.15
2018-05-09T00:29:13.761Z,10.14
2018-05-09T00:31:40.849Z,10.09
2018-05-09T00:34:07.941Z,9.95
2018-05-09T00:36:35.045Z,9.91
2018-05-09T00:39:02.182Z,9.77
2018-05-09T00:41:29.245Z,9.71
2018-05-09T00:43:56.325Z,9.72
2018-05-09T00:46:23.491Z,9.83
2018-05-09T00:48:50.695Z,9.93
2018-05-09T00:51:17.829Z,9.99
2018-05-09T00:53:44.878Z,10.00
2018-05-09T00:56:11.955Z,9.91
2018-05-09T00:58:39.022Z,9.75
2018-05-09T01:01:06.316Z,9.70
2018-05-09T01:03:33.396Z,9.70
2018-05-09T01:06:00.488Z,9.67
2018-05-09T01:08:27.589Z,9.67
2018-05-09T01:10:54.619Z,9.65
2018-05-09T01:13:21.656Z,9.74
2018-05-09T01:15:48.741Z,9.72
2018-05-09T01:18:15.821Z,9.81
2018-05-09T01:20:42.909Z,9.77
2018-05-09T01:23:09.990Z,9.67
2018-05-09T01:25:37.174Z,9.63
2018-05-09T01:28:04.316Z,9.53
2018-05-09T01:30:31.531Z,9.44
2018-05-09T01:32:58.593Z,9.29
2018-05-09T01:35:25.710Z,9.36
2018-05-09T01:37:52.784Z,9.42
2018-05-09T01:40:19.841Z,9.38
2018-05-09T01:42:46.909Z,9.34
2018-05-09T01:45:14.295Z,9.32
2018-05-09T01:47:41.397Z,9.35
2018-05-09T01:50:08.469Z,9.29
2018-05-09T01:52:35.559Z,9.16
2018-05-09T01:55:02.680Z,9.18
2018-05-09T01:57:29.736Z,9.13
2018-05-09T01:59:56.912Z,9.19
2018-05-09T02:02:23.931Z,9.05
2018-05-09T02:04:51.022Z,8.89
2018-05-09T02:07:18.822Z,8.91
2018-05-09T02:09:45.886Z,8.86
2018-05-09T02:12:12.965Z,8.70
2018-05-09T02:14:40.045Z,8.75
2018-05-09T02:17:07.175Z,8.88
2018-05-09T02:19:34.218Z,8.89
2018-05-09T02:22:01.279Z,8.90
2018-05-09T02:24:28.454Z,8.87
2018-05-09T02:26:55.646Z,8.87
2018-05-09T02:29:22.735Z,8.95
2018-05-09T02:31:49.800Z,8.97
2018-05-09T02:34:16.901Z,8.66
2018-05-09T02:36:43.992Z,8.69
2018-05-09T02:39:11.101Z,8.70
2018-05-09T02:41:38.257Z,8.53
2018-05-09T02:44:05.337Z,8.41
2018-05-09T02:46:32.494Z,8.46
2018-05-09T02:48:59.705Z,8.44
2018-05-09T02:51:26.901Z,8.29
2018-05-09T02:53:53.956Z,8.35
2018-05-09T02:56:21.081Z,8.41
2018-05-09T02:58:48.262Z,8.52
2018-05-09T03:01:15.339Z,8.58
2018-05-09T03:03:42.432Z,8.43
2018-05-09T03:06:09.511Z,8.41
2018-05-09T03:08:36.885Z,8.31
2018-05-09T03:11:03.955Z,8.30
2018-05-09T03:13:31.181Z,8.28
2018-05-09T03:15:58.249Z,8.23
2018-05-09T03:18:25.341Z,8.28
2018-05-09T03:20:52.476Z,8.24
2018-05-09T03:23:19.852Z,8.13
2018-05-09T03:25:46.960Z,8.05
2018-05-09T03:28:14.042Z,8.10
2018-05-09T03:30:41.156Z,8.17
2018-05-09T03:33:08.272Z,8.24
2018-05-09T03:35:35.329Z,8.32
2018-05-09T03:38:02.434Z,8.32
2018-05-09T03:40:29.515Z,8.27
2018-05-09T03:42:56.557Z,8.24
2018-05-09T03:45:23.763Z,8.18
2018-05-09T03:47:50.835Z,8.14
2018-05-09T03:50:17.907Z,8.17
2018-05-09T03:52:44.981Z,8.08
2018-05-09T03:55:12.186Z,7.91
2018-05-09T03:57:39.335Z,8.01
2018-05-09T04:00:06.418Z,8.02
2018-05-09T04:02:39.284Z,7.86
2018-05-09T04:05:12.297Z,7.94
2018-05-09T04:07:45.186Z,8.04
2018-05-09T04:10:12.255Z,8.11
2018-05-09T04:12:39.364Z,8.21
2018-05-09T04:15:06.720Z,8.29
2018-05-09T04:17:33.812Z,8.33
2018-05-09T04:20:00.989Z,8.39
2018-05-09T04:22:28.072Z,8.50
2018-05-09T04:24:55.166Z,8.67
2018-05-09T04:27:22.295Z,8.80
2018-05-09T04:29:49.432Z,8.91
2018-05-09T04:32:16.526Z,8.87
2018-05-09T04:34:43.600Z,8.73
2018-05-09T04:37:11.443Z,8.71
2018-05-09T04:39:38.721Z,8.92
2018-05-09T04:42:05.911Z,9.01
2018-05-09T04:44:33.058Z,9.10
2018-05-09T04:47:00.482Z,9.39
2018-05-09T04:49:27.735Z,9.43
2018-05-09T04:51:55.050Z,9.51
2018-05-09T04:54:22.254Z,9.97
2018-05-09T04:56:49.330Z,10.55
2018-05-09T04:59:16.440Z,10.96
2018-05-09T05:01:43.557Z,11.39
2018-05-09T05:04:10.670Z,11.95
2018-05-09T05:06:37.980Z,12.56
2018-05-09T05:09:05.071Z,13.30
2018-05-09T05:11:32.202Z,13.81
2018-05-09T05:13:59.391Z,14.56
2018-05-09T05:16:26.532Z,15.03
2018-05-09T05:18:53.616Z,15.57
2018-05-09T05:21:20.761Z,15.51
2018-05-09T05:23:47.836Z,15.48
2018-05-09T05:26:15.056Z,15.78
2018-05-09T05:28:42.180Z,16.49
2018-05-09T05:31:09.267Z,16.06
2018-05-09T05:33:36.327Z,16.32
2018-05-09T05:36:03.392Z,16.34
2018-05-09T05:38:30.482Z,16.91
2018-05-09T05:40:57.690Z,17.67
2018-05-09T05:43:24.805Z,18.61
2018-05-09T05:45:51.927Z,19.10
2018-05-09T05:48:19.011Z,19.03
2018-05-09T05:50:46.107Z,19.54
2018-05-09T05:53:13.227Z,19.39
2018-05-09T05:55:40.532Z,20.24
2018-05-09T05:58:07.701Z,20.22
2018-05-09T06:00:34.858Z,21.20
2018-05-09T06:03:01.946Z,21.20
2018-05-09T06:05:29.044Z,20.55
2018-05-09T06:07:56.188Z,21.29
2018-05-09T06:10:23.484Z,22.25
2018-05-09T06:12:50.602Z,22.43
2018-05-09T06:15:17.684Z,22.74
2018-05-09T06:17:44.767Z,22.92
2018-05-09T06:20:11.842Z,22.73
2018-05-09T06:22:38.908Z,23.88
2018-05-09T06:25:06.019Z,23.10
2018-05-09T06:27:33.109Z,23.71
2018-05-09T06:30:00.209Z,24.26
2018-05-09T06:32:27.306Z,24.68
2018-05-09T06:34:54.343Z,25.12
2018-05-09T06:37:21.887Z,24.71
2018-05-09T06:39:49.429Z,24.32
2018-05-09T06:42:17.062Z,25.81
2018-05-09T06:44:44.653Z,26.03
2018-05-09T06:47:12.201Z,26.11
2018-05-09T06:49:40.734Z,24.62
2018-05-09T06:52:08.278Z,25.12
2018-05-09T06:54:35.971Z,25.16
2018-05-09T06:57:03.508Z,25.21
2018-05-09T06:59:31.063Z,25.99
2018-05-09T07:01:58.587Z,26.44
2018-05-09T07:04:26.113Z,26.64
2018-05-09T07:06:53.642Z,26.83
2018-05-09T07:09:21.190Z,26.90
2018-05-09T07:11:48.752Z,27.66
2018-05-09T07:14:16.264Z,28.68
2018-05-09T07:16:43.803Z,29.57
2018-05-09T07:19:11.327Z,29.58
2018-05-09T07:21:38.865Z,29.95
2018-05-09T07:24:06.414Z,29.96
2018-05-09T07:26:33.917Z,30.01
2018-05-09T07:29:01.477Z,30.60
2018-05-09T07:31:29.011Z,30.64
2018-05-09T07:33:56.604Z,30.87
2018-05-09T07:36:24.171Z,30.53
2018-05-09T07:38:51.823Z,29.57
2018-05-09T07:41:19.432Z,30.50
2018-05-09T07:43:47.006Z,31.63
2018-05-09T07:46:14.544Z,30.76
2018-05-09T07:48:42.066Z,30.85
2018-05-09T07:51:09.596Z,31.84
2018-05-09T07:53:37.127Z,32.99
2018-05-09T07:56:04.637Z,33.02
2018-05-09T07:58:32.173Z,32.58
2018-05-09T08:00:59.717Z,33.00
2018-05-09T08:03:27.243Z,32.98
2018-05-09T08:05:54.848Z,32.35
2018-05-09T08:08:22.337Z,32.11
2018-05-09T08:10:49.862Z,34.31
2018-05-09T08:13:17.444Z,34.01
2018-05-09T08:15:45.059Z,34.53
2018-05-09T08:18:12.593Z,36.04
2018-05-09T08:20:40.128Z,35.79
2018-05-09T08:23:07.737Z,34.47
2018-05-09T08:25:35.255Z,35.00
2018-05-09T08:28:02.779Z,35.81
2018-05-09T08:30:30.338Z,35.61
2018-05-09T08:32:57.865Z,35.63
2018-05-09T08:35:25.395Z,36.08
2018-05-09T08:37:52.917Z,35.78
2018-05-09T08:40:20.484Z,35.16
2018-05-09T08:42:48.012Z,34.38
2018-05-09T08:45:15.823Z,33.89
2018-05-09T08:47:43.462Z,34.63
2018-05-09T08:50:10.977Z,36.01
2018-05-09T08:52:38.503Z,37.32
2018-05-09T08:55:06.047Z,37.57
2018-05-09T08:57:33.653Z,37.05
2018-05-09T09:00:01.174Z,37.66
2018-05-09T09:02:28.940Z,37.74
2018-05-09T09:04:56.897Z,37.50
2018-05-09T09:07:24.435Z,38.44
2018-05-09T09:09:52.063Z,38.04
2018-05-09T09:12:19.783Z,36.50
2018-05-09T09:14:47.404Z,36.93
2018-05-09T09:17:14.912Z,37.37
2018-05-09T09:19:42.466Z,39.13
2018-05-09T09:22:09.979Z,39.73
2018-05-09T09:24:37.689Z,39.05
2018-05-09T09:27:05.235Z,39.76
2018-05-09T09:29:32.745Z,39.52
2018-05-09T09:32:00.340Z,39.49
2018-05-09T09:34:27.859Z,39.53
2018-05-09T09:36:55.404Z,39.75
2018-05-09T09:39:22.928Z,39.36
2018-05-09T09:41:50.468Z,39.37
2018-05-09T09:44:18.039Z,39.42
2018-05-09T09:46:45.614Z,39.72
2018-05-09T09:49:13.450Z,40.32
2018-05-09T09:51:41.063Z,41.43
2018-05-09T09:54:08.672Z,41.58
2018-05-09T09:56:36.313Z,42.72
2018-05-09T09:59:04.102Z,41.85
2018-05-09T10:01:31.694Z,40.37
2018-05-09T10:03:59.190Z,40.02
2018-05-09T10:06:26.694Z,42.21
2018-05-09T10:08:54.204Z,42.08
2018-05-09T10:11:21.830Z,40.93
2018-05-09T10:13:49.424Z,42.09
2018-05-09T10:16:16.992Z,43.00
2018-05-09T10:18:44.529Z,42.95
2018-05-09T10:21:12.133Z,43.23
2018-05-09T10:23:39.774Z,39.65
2018-05-09T10:26:07.430Z,37.03
2018-05-09T10:28:35.054Z,37.98
2018-05-09T10:31:02.678Z,40.18
2018-05-09T10:33:30.186Z,41.91
2018-05-09T10:35:57.825Z,42.50
2018-05-09T10:38:25.435Z,43.24
2018-05-09T10:40:53.002Z,43.25
2018-05-09T10:43:20.825Z,39.59
2018-05-09T10:45:48.514Z,39.24
2018-05-09T10:48:16.036Z,40.30
2018-05-09T10:50:43.760Z,37.88
2018-05-09T10:53:11.431Z,38.52
2018-05-09T10:55:38.939Z,40.49
2018-05-09T10:58:06.481Z,41.41
2018-05-09T11:00:34.708Z,41.54
2018-05-09T11:03:02.292Z,40.43
2018-05-09T11:05:29.868Z,36.89
2018-05-09T11:07:57.439Z,35.29
2018-05-09T11:10:25.010Z,33.87
2018-05-09T11:12:52.524Z,33.20
2018-05-09T11:15:20.240Z,31.89
2018-05-09T11:17:47.778Z,30.34
2018-05-09T11:20:15.304Z,31.52
2018-05-09T11:22:42.836Z,31.35
2018-05-09T11:25:10.409Z,30.98
2018-05-09T11:27:37.962Z,34.76
2018-05-09T11:30:05.518Z,37.64
2018-05-09T11:32:33.262Z,40.22
2018-05-09T11:35:00.807Z,40.38
2018-05-09T11:37:28.365Z,39.69
2018-05-09T11:39:55.974Z,37.81
2018-05-09T11:42:23.506Z,40.66
2018-05-09T11:44:51.093Z,41.02
2018-05-09T11:47:18.620Z,42.36
2018-05-09T11:49:46.155Z,42.48
2018-05-09T11:52:13.678Z,42.97
2018-05-09T11:54:41.231Z,44.00
2018-05-09T11:57:08.769Z,44.00
2018-05-09T11:59:36.316Z,40.65
2018-05-09T12:02:03.906Z,37.74
2018-05-09T12:04:31.571Z,34.54
2018-05-09T12:06:59.934Z,33.66
2018-05-09T12:09:27.461Z,32.91
2018-05-09T12:11:55.017Z,32.25
2018-05-09T12:14:22.549Z,34.00
2018-05-09T12:16:50.170Z,37.35
2018-05-09T12:19:17.683Z,38.46
2018-05-09T12:21:45.340Z,39.44
2018-05-09T12:24:12.875Z,40.71
2018-05-09T12:26:40.404Z,41.85
2018-05-09T12:29:07.911Z,42.31
2018-05-09T12:31:35.425Z,42.53
2018-05-09T12:34:03.047Z,42.33
2018-05-09T12:36:30.646Z,41.26
2018-05-09T12:38:58.179Z,38.69
2018-05-09T12:41:25.856Z,37.66
2018-05-09T12:43:53.457Z,36.70
2018-05-09T12:46:21.091Z,37.40
2018-05-09T12:48:48.788Z,37.07
2018-05-09T12:51:16.335Z,37.82
2018-05-09T12:53:43.969Z,39.55
2018-05-09T12:56:11.626Z,38.12
2018-05-09T12:58:39.253Z,38.14
2018-05-09T13:01:06.784Z,39.65
2018-05-09T13:03:34.306Z,37.29
2018-05-09T13:06:02.014Z,36.57
2018-05-09T13:08:29.530Z,39.00
2018-05-09T13:10:57.149Z,39.46
2018-05-09T13:13:24.713Z,39.94
2018-05-09T13:15:52.373Z,37.93
2018-05-09T13:18:20.005Z,37.66
2018-05-09T13:20:47.620Z,37.80
2018-05-09T13:23:15.413Z,36.21
2018-05-09T13:25:43.046Z,36.68
2018-05-09T13:28:10.804Z,34.80
2018-05-09T13:30:38.630Z,34.57
2018-05-09T13:33:06.212Z,33.74
2018-05-09T13:35:34.104Z,33.99
2018-05-09T13:38:01.804Z,34.94
2018-05-09T13:40:29.340Z,35.38
2018-05-09T13:42:57.045Z,34.54
2018-05-09T13:45:24.676Z,34.15
2018-05-09T13:47:52.556Z,33.50
2018-05-09T13:50:20.074Z,32.49
2018-05-09T13:52:47.791Z,32.00
2018-05-09T13:55:15.316Z,31.44
2018-05-09T13:57:43.016Z,31.13
2018-05-09T14:00:10.689Z,30.85
2018-05-09T14:02:38.359Z,31.00
2018-05-09T14:05:06.210Z,31.09
2018-05-09T14:07:33.807Z,31.08
2018-05-09T14:10:01.470Z,31.16
2018-05-09T14:12:29.008Z,30.85
2018-05-09T14:14:56.541Z,30.94
2018-05-09T14:17:24.096Z,30.74
2018-05-09T14:19:51.645Z,30.74
2018-05-09T14:22:19.379Z,30.28
2018-05-09T14:24:46.925Z,30.12
2018-05-09T14:27:14.488Z,30.08
2018-05-09T14:29:42.069Z,29.87
2018-05-09T14:32:09.641Z,29.96
2018-05-09T14:34:37.179Z,30.12
2018-05-09T14:37:04.894Z,29.84
2018-05-09T14:39:32.419Z,29.65
2018-05-09T14:42:00.014Z,29.11
2018-05-09T14:44:27.561Z,29.22
2018-05-09T14:46:55.091Z,29.17
2018-05-09T14:49:22.765Z,29.16
2018-05-09T14:51:50.494Z,29.04
2018-05-09T14:54:18.309Z,28.69
2018-05-09T14:56:45.866Z,28.84
2018-05-09T14:59:13.395Z,28.68
2018-05-09T15:01:40.927Z,28.60
2018-05-09T15:04:08.459Z,28.65
2018-05-09T15:06:36.150Z,28.73
2018-05-09T15:09:03.714Z,28.59
2018-05-09T15:11:31.256Z,28.39
2018-05-09T15:13:58.808Z,28.02
2018-05-09T15:16:26.456Z,27.97
2018-05-09T15:18:53.974Z,28.04
2018-05-09T15:21:21.848Z,28.06
2018-05-09T15:23:49.360Z,28.11
2018-05-09T15:26:16.895Z,27.83
2018-05-09T15:28:44.591Z,27.46
2018-05-09T15:31:12.114Z,27.31
2018-05-09T15:33:39.752Z,27.07
2018-05-09T15:36:07.285Z,26.82
2018-05-09T15:38:34.851Z,26.63
2018-05-09T15:41:02.409Z,26.39
2018-05-09T15:43:29.944Z,26.13
2018-05-09T15:45:57.555Z,26.01
2018-05-09T15:48:25.094Z,25.87
2018-05-09T15:50:52.766Z,25.78
2018-05-09T15:53:20.313Z,25.66
2018-05-09T15:55:47.862Z,25.58
2018-05-09T15:58:15.404Z,25.52
2018-05-09T16:00:42.960Z,25.40
2018-05-09T16:03:10.512Z,25.51
2018-05-09T16:05:38.145Z,25.58
2018-05-09T16:08:05.699Z,25.51
2018-05-09T16:10:33.408Z,25.46
2018-05-09T16:13:00.892Z,25.55
2018-05-09T16:15:28.602Z,25.67
2018-05-09T16:17:56.200Z,25.66
2018-05-09T16:20:23.830Z,25.79
2018-05-09T16:22:51.628Z,25.87
2018-05-09T16:25:19.171Z,25.84
2018-05-09T16:27:46.702Z,25.90
2018-05-09T16:30:14.355Z,26.00
2018-05-09T16:32:41.983Z,26.00
2018-05-09T16:35:09.631Z,26.03
2018-05-09T16:37:37.407Z,25.95
2018-05-09T16:40:05.321Z,25.67
2018-05-09T16:42:32.944Z,25.43
2018-05-09T16:45:00.525Z,25.31
2018-05-09T16:47:28.101Z,25.22
2018-05-09T16:49:55.670Z,25.02
2018-05-09T16:52:23.356Z,24.94
2018-05-09T16:54:51.054Z,24.89
2018-05-09T16:57:18.616Z,24.85
2018-05-09T16:59:46.341Z,24.79
2018-05-09T17:02:14.171Z,24.67
2018-05-09T17:04:42.103Z,24.59
2018-05-09T17:07:09.743Z,24.42
2018-05-09T17:09:37.519Z,24.35
2018-05-09T17:12:05.171Z,24.17
2018-05-09T17:14:32.727Z,24.09
2018-05-09T17:17:00.305Z,23.73
2018-05-09T17:19:27.851Z,23.29
2018-05-09T17:22:13.068Z,22.99
2018-05-09T17:24:40.209Z,22.99
2018-05-09T17:27:07.312Z,22.96
2018-05-09T17:29:34.542Z,22.58
2018-05-09T17:32:01.681Z,22.51
2018-05-09T17:34:29.297Z,22.37
2018-05-09T17:36:56.837Z,22.40
2018-05-09T17:39:24.466Z,22.19
2018-05-09T17:41:52.003Z,22.03
2018-05-09T17:44:19.094Z,21.94
2018-05-09T17:46:46.191Z,21.86
2018-05-09T17:49:13.287Z,22.01
2018-05-09T17:51:40.376Z,22.15
2018-05-09T17:54:07.458Z,22.13
2018-05-09T17:56:34.571Z,22.02
2018-05-09T17:59:01.672Z,21.62
2018-05-09T18:01:28.807Z,21.19
2018-05-09T18:03:55.917Z,21.16
2018-05-09T18:06:22.986Z,21.33
2018-05-09T18:08:50.123Z,21.50
2018-05-09T18:11:17.207Z,21.49
2018-05-09T18:13:44.447Z,21.43
2018-05-09T18:16:11.792Z,21.36
2018-05-09T18:18:39.075Z,21.22
2018-05-09T18:21:06.303Z,21.07
2018-05-09T18:23:33.401Z,20.92
2018-05-09T18:26:00.518Z,20.78
2018-05-09T18:28:27.662Z,20.60
2018-05-09T18:30:54.837Z,20.39
2018-05-09T18:33:21.930Z,20.24
2018-05-09T18:35:49.153Z,20.16
2018-05-09T18:38:16.234Z,19.97
2018-05-09T18:40:43.451Z,19.77
2018-05-09T18:43:10.618Z,19.62
2018-05-09T18:45:38.010Z,19.52
2018-05-09T18:48:05.114Z,19.49
2018-05-09T18:50:32.231Z,19.39
2018-05-09T18:52:59.331Z,19.19
2018-05-09T18:55:26.453Z,18.88
2018-05-09T18:57:53.528Z,18.41
2018-05-09T19:00:20.624Z,18.27
2018-05-09T19:02:47.748Z,18.31
2018-05-09T19:05:15.248Z,18.29
2018-05-09T19:07:42.949Z,18.24
2018-05-09T19:10:10.509Z,18.07
2018-05-09T19:12:38.157Z,18.11
2018-05-09T19:15:05.312Z,18.01
2018-05-09T19:17:32.413Z,17.87
2018-05-09T19:20:00.054Z,17.71
2018-05-09T19:22:27.287Z,17.48
2018-05-09T19:24:54.398Z,17.32
2018-05-09T19:27:21.623Z,17.17
2018-05-09T19:29:48.709Z,17.15
2018-05-09T19:32:15.819Z,17.03
2018-05-09T19:34:42.916Z,17.13
2018-05-09T19:37:10.181Z,17.25
2018-05-09T19:39:37.283Z,17.03
2018-05-09T19:42:04.386Z,17.02
2018-05-09T19:44:31.446Z,16.88
2018-05-09T19:46:58.543Z,16.29
2018-05-09T19:49:25.622Z,16.17
2018-05-09T19:51:52.766Z,16.12
2018-05-09T19:54:19.939Z,16.01
2018-05-09T19:56:47.033Z,16.20
2018-05-09T19:59:14.140Z,16.11
2018-05-09T20:01:41.220Z,16.27
2018-05-09T20:04:08.819Z,16.34
2018-05-09T20:06:36.048Z,16.39
2018-05-09T20:09:03.361Z,16.22
2018-05-09T20:11:30.466Z,15.93
2018-05-09T20:13:57.935Z,15.74
2018-05-09T20:16:25.099Z,15.83
2018-05-09T20:18:52.201Z,15.96
2018-05-09T20:21:19.362Z,15.99
2018-05-09T20:23:46.487Z,16.08
2018-05-09T20:26:13.608Z,15.71
2018-05-09T20:28:46.365Z,15.70
2018-05-09T20:31:25.176Z,15.86
2018-05-09T20:33:52.255Z,15.87
2018-05-09T20:36:19.338Z,15.76
2018-05-09T20:38:46.672Z,15.84
2018-05-09T20:41:13.788Z,15.82
2018-05-09T20:43:40.858Z,15.79
2018-05-09T20:46:08.063Z,15.68
2018-05-09T20:48:35.174Z,15.50
2018-05-09T20:51:02.391Z,15.54
2018-05-09T20:53:29.602Z,15.58
2018-05-09T20:55:56.689Z,15.59
2018-05-09T20:58:23.797Z,15.39
2018-05-09T21:00:51.721Z,15.35
2018-05-09T21:03:18.799Z,15.35
2018-05-09T21:05:45.933Z,15.23
2018-05-09T21:08:13.389Z,15.16
2018-05-09T21:10:40.591Z,15.04
2018-05-09T21:13:07.700Z,15.01
2018-05-09T21:15:34.828Z,15.00
2018-05-09T21:18:01.904Z,14.85
2018-05-09T21:20:29.119Z,14.91
2018-05-09T21:22:56.262Z,14.87
2018-05-09T21:25:23.362Z,14.90
2018-05-09T21:27:50.472Z,14.91
2018-05-09T21:30:17.742Z,14.92
2018-05-09T21:32:44.858Z,14.95
2018-05-09T21:35:13.969Z,14.96
2018-05-09T21:37:41.162Z,14.98
2018-05-09T21:40:08.258Z,14.81
2018-05-09T21:42:35.316Z,14.70
2018-05-09T21:45:02.467Z,14.53
2018-05-09T21:47:29.631Z,14.51
2018-05-09T21:49:56.861Z,14.49
2018-05-09T21:52:23.973Z,14.55
2018-05-09T21:54:51.087Z,14.47
2018-05-09T21:57:18.153Z,14.38
2018-05-09T21:59:45.253Z,14.39
2018-05-09T22:02:12.384Z,14.47
2018-05-09T22:04:39.493Z,14.50
2018-05-09T22:07:06.743Z,14.58
2018-05-09T22:09:33.896Z,14.64
2018-05-09T22:12:00.967Z,14.68
2018-05-09T22:14:28.049Z,14.74
2018-05-09T22:16:55.113Z,14.78
2018-05-09T22:19:22.509Z,14.76
2018-05-09T22:21:49.697Z,14.77
2018-05-09T22:24:16.752Z,14.75
2018-05-09T22:26:43.911Z,14.75
2018-05-09T22:29:11.012Z,14.76
2018-05-09T22:31:38.083Z,14.50
2018-05-09T22:34:05.150Z,14.39
2018-05-09T22:36:32.257Z,14.37
2018-05-09T22:38:59.343Z,14.40
2018-05-09T22:41:26.399Z,14.46
2018-05-09T22:43:53.496Z,14.53
2018-05-09T22:46:20.579Z,14.51
2018-05-09T22:48:47.662Z,14.53
2018-05-09T22:51:14.788Z,14.46
2018-05-09T22:53:41.854Z,14.40
2018-05-09T22:56:08.932Z,14.43
2018-05-09T22:58:36.938Z,14.36
2018-05-09T23:01:04.036Z,14.41
2018-05-09T23:03:31.101Z,14.46
2018-05-09T23:05:58.173Z,14.36
2018-05-09T23:08:25.223Z,14.22
2018-05-09T23:10:52.319Z,14.21
2018-05-09T23:13:19.374Z,14.27
2018-05-09T23:15:46.528Z,14.27
2018-05-09T23:18:13.773Z,14.16
2018-05-09T23:20:40.904Z,13.98
2018-05-09T23:23:08.022Z,13.97
2018-05-09T23:25:35.112Z,14.00
2018-05-09T23:28:02.211Z,14.14
2018-05-09T23:30:29.321Z,14.23
2018-05-09T23:32:56.449Z,14.26
2018-05-09T23:35:23.537Z,14.21
2018-05-09T23:37:50.731Z,14.07
2018-05-09T23:40:17.737Z,14.10
2018-05-09T23:42:44.877Z,14.09
2018-05-09T23:45:11.989Z,13.93
2018-05-09T23:47:39.148Z,13.87
2018-05-09T23:50:06.208Z,13.97
2018-05-09T23:52:33.267Z,13.83
2018-05-09T23:55:00.366Z,13.70
2018-05-09T23:57:27.447Z,13.65
2018-05-09T23:59:54.491Z,13.62
